Time;durP1;ratioP1;P1;durP2;ratioP2;P2;SDS_P1;SDS_P2;PMS_P1;PMS_P2;Temp;Humidity;BMP_temperature;BMP_pressure;BME280_temperature;BME280_humidity;BME280_pressure;Samples;Min_cycle;Max_cycle;Signal;HPM_P1;HPM_P2
2023/10/26 00:00:14;;;;;;;12.23;7.22;;;;;;;;;;4897700;29;20640;-53
2023/10/26 00:03:01;;;;;;;15.15;7.85;;;;;;;;;;4897959;29;20248;-55
2023/10/26 00:05:28;;;;;;;14.20;7.38;;;;;;;;;;4896099;29;20206;-55
2023/10/26 00:07:56;;;;;;;12.93;7.57;;;;;;;;;;4897319;29;20731;-52
2023/10/26 00:10:23;;;;;;;15.80;9.07;;;;;;;;;;4897257;29;20206;-55
2023/10/26 00:12:51;;;;;;;16.73;8.45;;;;;;;;;;4897284;29;20221;-57
2023/10/26 00:15:18;;;;;;;16.45;9.38;;;;;;;;;;4896926;29;20597;-54
2023/10/26 00:17:46;;;;;;;24.33;11.18;;;;;;;;;;4897269;29;20213;-54
2023/10/26 00:20:13;;;;;;;18.70;9.43;;;;;;;;;;4897063;29;20216;-57
2023/10/26 00:22:40;;;;;;;20.08;9.82;;;;;;;;;;4897364;29;20209;-53
2023/10/26 00:25:07;;;;;;;20.25;10.18;;;;;;;;;;4896937;29;20705;-54
2023/10/26 00:27:40;;;;;;;19.48;9.20;;;;;;;;;;4897216;29;20216;-56
2023/10/26 00:30:10;;;;;;;21.60;10.70;;;;;;;;;;4895817;29;20651;-54
2023/10/26 00:32:38;;;;;;;18.92;9.23;;;;;;;;;;4896994;29;20277;-53
2023/10/26 00:35:05;;;;;;;18.25;9.50;;;;;;;;;;4896801;29;20210;-56
2023/10/26 00:37:33;;;;;;;15.65;9.10;;;;;;;;;;4896965;29;20214;-56
2023/10/26 00:40:00;;;;;;;16.77;9.30;;;;;;;;;;4897009;29;20296;-54
2023/10/26 00:42:28;;;;;;;18.77;9.48;;;;;;;;;;4896829;29;20678;-54
2023/10/26 00:44:56;;;;;;;18.50;9.95;;;;;;;;;;4895555;29;20261;-51
2023/10/26 00:47:25;;;;;;;18.25;9.10;;;;;;;;;;4896689;29;20209;-57
2023/10/26 00:49:53;;;;;;;15.95;8.60;;;;;;;;;;4895848;29;20209;-54
2023/10/26 00:52:22;;;;;;;17.45;9.65;;;;;;;;;;4895563;29;20216;-54
2023/10/26 00:54:49;;;;;;;15.10;9.13;;;;;;;;;;4895319;29;20233;-54
2023/10/26 00:57:18;;;;;;;16.05;8.82;;;;;;;;;;4895633;29;20238;-57
2023/10/26 00:59:46;;;;;;;16.88;9.18;;;;;;;;;;4880143;29;20667;-56
2023/10/26 01:02:15;;;;;;;15.98;9.10;;;;;;;;;;4880340;29;20210;-56
2023/10/26 01:04:42;;;;;;;19.63;9.32;;;;;;;;;;4895373;29;20209;-54
2023/10/26 01:07:10;;;;;;;19.13;10.25;;;;;;;;;;4896301;29;20217;-55
2023/10/26 01:09:37;;;;;;;16.35;9.30;;;;;;;;;;4896416;29;20629;-54
2023/10/26 01:12:05;;;;;;;18.27;9.90;;;;;;;;;;4896603;29;20209;-55
2023/10/26 01:14:32;;;;;;;14.95;8.70;;;;;;;;;;4896529;29;20219;-54
2023/10/26 01:17:00;;;;;;;16.25;9.40;;;;;;;;;;4896487;29;20237;-57
2023/10/26 01:19:44;;;;;;;16.52;9.15;;;;;;;;;;4896409;29;20397;-53
2023/10/26 01:22:11;;;;;;;17.85;10.65;;;;;;;;;;4879837;29;20217;-57
2023/10/26 01:24:39;;;;;;;15.07;9.00;;;;;;;;;;4896738;29;20322;-55
2023/10/26 01:27:06;;;;;;;19.00;10.07;;;;;;;;;;4896408;29;20209;-55
2023/10/26 01:29:34;;;;;;;19.40;10.38;;;;;;;;;;4896405;29;20206;-54
2023/10/26 01:32:01;;;;;;;17.67;10.65;;;;;;;;;;4896564;29;20209;-54
2023/10/26 01:34:30;;;;;;;16.50;9.13;;;;;;;;;;4895049;29;20213;-53
2023/10/26 01:36:58;;;;;;;15.07;9.52;;;;;;;;;;4896533;29;20561;-54
2023/10/26 01:39:25;;;;;;;21.70;10.48;;;;;;;;;;4896370;29;20233;-54
2023/10/26 01:41:53;;;;;;;22.45;10.88;;;;;;;;;;4896304;29;20296;-53
2023/10/26 01:44:22;;;;;;;18.38;10.02;;;;;;;;;;4895005;29;20726;-55
2023/10/26 01:46:50;;;;;;;17.40;10.60;;;;;;;;;;4895267;29;20221;-54
2023/10/26 01:49:17;;;;;;;17.50;9.82;;;;;;;;;;4896364;29;20209;-54
2023/10/26 01:51:44;;;;;;;19.27;10.68;;;;;;;;;;4895133;29;20206;-54
2023/10/26 01:54:11;;;;;;;18.15;9.77;;;;;;;;;;4895860;29;20245;-56
2023/10/26 01:56:39;;;;;;;18.45;10.55;;;;;;;;;;4894935;29;20237;-54
2023/10/26 01:59:06;;;;;;;20.77;10.77;;;;;;;;;;4894946;29;20214;-55
2023/10/26 02:01:33;;;;;;;20.70;10.68;;;;;;;;;;4896039;29;20232;-55
2023/10/26 02:04:00;;;;;;;20.58;11.15;;;;;;;;;;4898736;29;20264;-55
2023/10/26 02:06:27;;;;;;;24.20;12.00;;;;;;;;;;4898394;29;20311;-54
2023/10/26 02:08:56;;;;;;;22.40;12.02;;;;;;;;;;4898424;29;20201;-54
2023/10/26 02:11:23;;;;;;;19.88;11.90;;;;;;;;;;4898974;29;20209;-57
2023/10/26 02:13:51;;;;;;;22.42;11.77;;;;;;;;;;4897797;29;20214;-56
2023/10/26 02:16:20;;;;;;;28.35;13.25;;;;;;;;;;4896732;29;20225;-57
2023/10/26 02:18:47;;;;;;;33.65;15.20;;;;;;;;;;4896613;29;20667;-57
2023/10/26 02:21:14;;;;;;;28.00;14.70;;;;;;;;;;4897888;29;20273;-56
2023/10/26 02:23:43;;;;;;;28.17;14.52;;;;;;;;;;4898190;29;20266;-56
2023/10/26 02:26:11;;;;;;;25.83;14.32;;;;;;;;;;4896737;29;20209;-55
2023/10/26 02:28:38;;;;;;;28.27;15.90;;;;;;;;;;4896462;29;20301;-55
2023/10/26 02:31:05;;;;;;;29.42;15.13;;;;;;;;;;4896652;29;20213;-57
2023/10/26 02:33:32;;;;;;;32.50;15.70;;;;;;;;;;4898018;29;20205;-52
2023/10/26 02:36:00;;;;;;;29.10;15.93;;;;;;;;;;4898907;29;20244;-56
2023/10/26 02:38:27;;;;;;;35.15;16.50;;;;;;;;;;4897895;29;20288;-56
2023/10/26 02:40:54;;;;;;;30.27;16.77;;;;;;;;;;4897592;29;20214;-54
2023/10/26 02:43:21;;;;;;;35.15;16.73;;;;;;;;;;4899084;29;20208;-55
2023/10/26 02:45:59;;;;;;;32.38;16.85;;;;;;;;;;4899176;29;20261;-57
2023/10/26 02:48:26;;;;;;;29.83;16.52;;;;;;;;;;4899047;29;20538;-56
2023/10/26 02:50:53;;;;;;;28.48;15.80;;;;;;;;;;4897599;29;20209;-57
2023/10/26 02:53:20;;;;;;;35.10;17.27;;;;;;;;;;4898438;29;20248;-54
2023/10/26 02:55:48;;;;;;;28.05;16.45;;;;;;;;;;4898451;29;20230;-55
2023/10/26 02:58:15;;;;;;;27.27;15.05;;;;;;;;;;4898749;29;20214;-55
2023/10/26 03:00:42;;;;;;;27.27;14.38;;;;;;;;;;4898427;29;20678;-54
2023/10/26 03:03:09;;;;;;;25.85;14.02;;;;;;;;;;4897395;29;20217;-56
2023/10/26 03:05:38;;;;;;;27.92;13.43;;;;;;;;;;4897634;29;20216;-52
2023/10/26 03:08:05;;;;;;;21.98;12.68;;;;;;;;;;4897092;29;20216;-53
2023/10/26 03:10:32;;;;;;;24.52;12.90;;;;;;;;;;4898325;29;20202;-55
2023/10/26 03:12:59;;;;;;;18.58;10.43;;;;;;;;;;4897535;29;20228;-54
2023/10/26 03:15:27;;;;;;;20.17;11.27;;;;;;;;;;4897364;29;20221;-56
2023/10/26 03:17:54;;;;;;;15.05;9.32;;;;;;;;;;4898252;29;20239;-51
2023/10/26 03:20:21;;;;;;;16.27;9.40;;;;;;;;;;4898106;29;20557;-53
2023/10/26 03:22:49;;;;;;;16.95;10.02;;;;;;;;;;4898340;29;20229;-53
2023/10/26 03:25:16;;;;;;;13.27;8.20;;;;;;;;;;4898204;29;20209;-55
2023/10/26 03:27:44;;;;;;;14.93;10.00;;;;;;;;;;4897626;29;20300;-54
2023/10/26 03:30:11;;;;;;;17.63;10.00;;;;;;;;;;4896903;29;20216;-54
2023/10/26 03:32:38;;;;;;;17.42;9.13;;;;;;;;;;4896715;29;20300;-57
2023/10/26 03:35:08;;;;;;;14.50;8.10;;;;;;;;;;4897626;29;20277;-56
2023/10/26 03:37:36;;;;;;;15.48;8.40;;;;;;;;;;4897588;29;20236;-54
2023/10/26 03:40:07;;;;;;;19.23;8.23;;;;;;;;;;4897593;29;20667;-57
2023/10/26 03:42:34;;;;;;;13.27;8.43;;;;;;;;;;4897795;29;20278;-55
2023/10/26 03:45:03;;;;;;;11.02;7.47;;;;;;;;;;4897429;29;20209;-57
2023/10/26 03:47:30;;;;;;;13.80;8.32;;;;;;;;;;4895904;29;20335;-53
2023/10/26 03:49:57;;;;;;;12.27;8.15;;;;;;;;;;4896850;29;20232;-53
2023/10/26 03:52:24;;;;;;;13.38;8.48;;;;;;;;;;4896202;29;20257;-53
2023/10/26 03:54:52;;;;;;;14.77;8.20;;;;;;;;;;4897852;29;20245;-56
2023/10/26 03:57:19;;;;;;;14.18;8.27;;;;;;;;;;4897761;29;20241;-57
2023/10/26 03:59:46;;;;;;;12.20;7.57;;;;;;;;;;4897392;29;20552;-55
2023/10/26 04:02:13;;;;;;;12.27;8.20;;;;;;;;;;4895568;29;20201;-55
2023/10/26 04:04:42;;;;;;;14.80;8.57;;;;;;;;;;4897605;29;20574;-57
2023/10/26 04:07:09;;;;;;;12.52;8.02;;;;;;;;;;4897173;29;20675;-56
2023/10/26 04:09:37;;;;;;;13.50;9.00;;;;;;;;;;4891815;29;20233;-55
2023/10/26 04:12:04;;;;;;;18.45;9.27;;;;;;;;;;4896375;29;20304;-52
2023/10/26 04:14:33;;;;;;;19.08;11.40;;;;;;;;;;4908484;29;20319;-57
2023/10/26 04:17:00;;;;;;;21.58;13.32;;;;;;;;;;4904591;29;20267;-54
2023/10/26 04:19:27;;;;;;;17.33;13.07;;;;;;;;;;4896215;29;20254;-56
2023/10/26 04:21:54;;;;;;;15.98;9.65;;;;;;;;;;4877958;29;20700;-56
2023/10/26 04:24:22;;;;;;;15.45;9.32;;;;;;;;;;4877191;29;20238;-56
2023/10/26 04:26:49;;;;;;;12.65;8.77;;;;;;;;;;4877972;29;20269;-57
2023/10/26 04:29:16;;;;;;;15.65;9.23;;;;;;;;;;4877944;29;20719;-57
2023/10/26 04:31:43;;;;;;;15.15;10.05;;;;;;;;;;4877661;29;20230;-54
2023/10/26 04:34:11;;;;;;;14.90;10.13;;;;;;;;;;4877811;29;20234;-56
2023/10/26 04:36:38;;;;;;;16.80;8.80;;;;;;;;;;4877636;29;20301;-57
2023/10/26 04:39:08;;;;;;;14.88;8.75;;;;;;;;;;4877191;29;20237;-54
2023/10/26 04:41:36;;;;;;;12.50;8.55;;;;;;;;;;4878012;29;20233;-57
2023/10/26 04:44:05;;;;;;;14.20;8.38;;;;;;;;;;4877494;29;20298;-55
2023/10/26 04:46:32;;;;;;;14.13;9.43;;;;;;;;;;4877315;29;20265;-56
2023/10/26 04:49:00;;;;;;;13.20;8.43;;;;;;;;;;4877713;29;20234;-56
2023/10/26 04:51:27;;;;;;;15.65;9.30;;;;;;;;;;4877406;29;20277;-56
2023/10/26 04:53:55;;;;;;;16.10;10.13;;;;;;;;;;4887431;29;20245;-57
2023/10/26 04:56:22;;;;;;;14.98;9.10;;;;;;;;;;4893936;29;20241;-57
2023/10/26 04:58:49;;;;;;;15.38;9.43;;;;;;;;;;4895667;29;20216;-58
2023/10/26 05:01:16;;;;;;;17.00;9.98;;;;;;;;;;4895348;29;20707;-56
2023/10/26 05:03:44;;;;;;;15.75;10.00;;;;;;;;;;4895846;29;20377;-58
2023/10/26 05:06:11;;;;;;;14.90;9.40;;;;;;;;;;4895757;29;20316;-56
2023/10/26 05:08:38;;;;;;;16.13;10.13;;;;;;;;;;4895546;29;20308;-57
2023/10/26 05:11:05;;;;;;;16.52;10.20;;;;;;;;;;4895872;29;20229;-57
2023/10/26 05:13:32;;;;;;;20.42;11.13;;;;;;;;;;4895979;29;20237;-56
2023/10/26 05:15:59;;;;;;;15.88;10.15;;;;;;;;;;4895797;29;20257;-58
2023/10/26 05:18:27;;;;;;;15.80;10.40;;;;;;;;;;4896076;29;20227;-54
2023/10/26 05:20:55;;;;;;;19.10;10.70;;;;;;;;;;4895973;29;20209;-56
2023/10/26 05:23:22;;;;;;;15.10;9.52;;;;;;;;;;4894974;29;20205;-56
2023/10/26 05:25:49;;;;;;;16.08;10.02;;;;;;;;;;4896199;29;20220;-55
2023/10/26 05:28:17;;;;;;;14.80;8.98;;;;;;;;;;4896328;29;20205;-55
2023/10/26 05:30:44;;;;;;;14.63;9.35;;;;;;;;;;4896275;29;20213;-57
2023/10/26 05:33:11;;;;;;;14.13;8.75;;;;;;;;;;4896290;29;20216;-56
2023/10/26 05:35:38;;;;;;;16.15;9.63;;;;;;;;;;4896081;29;20209;-56
2023/10/26 05:38:06;;;;;;;14.45;9.15;;;;;;;;;;4899808;29;20257;-55
2023/10/26 05:40:33;;;;;;;21.70;10.60;;;;;;;;;;4900239;29;20213;-57
2023/10/26 05:43:01;;;;;;;15.10;9.77;;;;;;;;;;4899897;29;20218;-55
2023/10/26 05:45:29;;;;;;;14.75;8.88;;;;;;;;;;4900236;29;20210;-54
2023/10/26 05:47:56;;;;;;;14.02;8.43;;;;;;;;;;4899882;29;20663;-54
2023/10/26 05:50:23;;;;;;;14.35;9.30;;;;;;;;;;4900237;29;20264;-56
2023/10/26 05:52:51;;;;;;;15.65;9.30;;;;;;;;;;4899464;29;20206;-55
2023/10/26 05:55:19;;;;;;;13.90;8.65;;;;;;;;;;4899718;29;20206;-55
2023/10/26 05:57:46;;;;;;;14.68;8.73;;;;;;;;;;4899844;29;20233;-54
2023/10/26 06:00:13;;;;;;;16.13;9.38;;;;;;;;;;4899798;29;20321;-55
2023/10/26 06:02:41;;;;;;;12.20;7.93;;;;;;;;;;4899854;29;20201;-55
2023/10/26 06:05:08;;;;;;;18.70;8.35;;;;;;;;;;4900022;29;20602;-55
2023/10/26 06:07:35;;;;;;;26.95;7.90;;;;;;;;;;4899458;29;20213;-54
2023/10/26 06:10:05;;;;;;;24.98;8.88;;;;;;;;;;4899663;29;20209;-55
2023/10/26 06:12:33;;;;;;;22.02;7.78;;;;;;;;;;4899384;29;20209;-55
2023/10/26 06:15:00;;;;;;;21.65;8.27;;;;;;;;;;4899586;29;20216;-57
2023/10/26 06:17:27;;;;;;;18.73;8.35;;;;;;;;;;4899256;29;20259;-56
2023/10/26 06:19:54;;;;;;;17.48;8.32;;;;;;;;;;4899239;29;20568;-54
2023/10/26 06:22:22;;;;;;;30.40;8.10;;;;;;;;;;4899366;29;20232;-55
2023/10/26 06:24:49;;;;;;;24.02;9.63;;;;;;;;;;4899212;29;20217;-55
2023/10/26 06:27:16;;;;;;;19.30;8.40;;;;;;;;;;4898986;29;20213;-54
2023/10/26 06:29:44;;;;;;;29.98;9.18;;;;;;;;;;4899471;29;20202;-54
2023/10/26 06:32:12;;;;;;;17.80;9.20;;;;;;;;;;4899252;29;20209;-54
2023/10/26 06:34:39;;;;;;;15.98;8.65;;;;;;;;;;4899254;29;20352;-54
2023/10/26 06:37:06;;;;;;;17.35;9.90;;;;;;;;;;4899040;29;20237;-54
2023/10/26 06:39:33;;;;;;;18.58;10.52;;;;;;;;;;4899146;29;20296;-54
2023/10/26 06:42:01;;;;;;;19.17;10.85;;;;;;;;;;4898907;29;20220;-54
2023/10/26 06:44:29;;;;;;;16.38;10.63;;;;;;;;;;4897831;29;20209;-55
2023/10/26 06:46:56;;;;;;;20.35;10.73;;;;;;;;;;4898670;29;20213;-56
2023/10/26 06:49:23;;;;;;;22.05;12.32;;;;;;;;;;4898910;29;20622;-53
2023/10/26 06:51:57;;;;;;;20.73;11.88;;;;;;;;;;4899003;29;20678;-56
2023/10/26 06:54:24;;;;;;;20.13;11.55;;;;;;;;;;4898669;29;20322;-55
2023/10/26 06:56:51;;;;;;;21.60;12.20;;;;;;;;;;4898531;29;20216;-57
2023/10/26 06:59:18;;;;;;;18.42;11.35;;;;;;;;;;4898563;29;20308;-55
2023/10/26 07:01:46;;;;;;;19.98;11.43;;;;;;;;;;4898437;29;20220;-56
2023/10/26 07:04:34;;;;;;;17.92;10.93;;;;;;;;;;4898588;29;20198;-57
2023/10/26 07:07:02;;;;;;;22.75;12.77;;;;;;;;;;4898475;29;20671;-55
2023/10/26 07:09:30;;;;;;;19.73;11.10;;;;;;;;;;4898343;29;20764;-56
2023/10/26 07:11:57;;;;;;;19.83;12.20;;;;;;;;;;4898176;29;20209;-56
2023/10/26 07:14:25;;;;;;;22.00;11.95;;;;;;;;;;4898729;29;20210;-56
2023/10/26 07:16:52;;;;;;;24.02;13.02;;;;;;;;;;4898562;29;20209;-55
2023/10/26 07:19:19;;;;;;;21.70;12.55;;;;;;;;;;4898362;29;20217;-57
2023/10/26 07:21:47;;;;;;;21.40;12.65;;;;;;;;;;4898232;29;20554;-55
2023/10/26 07:24:14;;;;;;;19.67;11.48;;;;;;;;;;4898056;29;20208;-55
2023/10/26 07:26:42;;;;;;;24.35;14.35;;;;;;;;;;4898686;29;20210;-56
2023/10/26 07:29:09;;;;;;;21.35;12.77;;;;;;;;;;4898082;29;20229;-57
2023/10/26 07:31:36;;;;;;;20.95;12.85;;;;;;;;;;4898063;29;20216;-56
2023/10/26 07:34:21;;;;;;;21.58;12.10;;;;;;;;;;4898000;29;20296;-55
2023/10/26 07:36:48;;;;;;;25.73;13.45;;;;;;;;;;4898221;29;20655;-55
2023/10/26 07:39:16;;;;;;;21.70;12.65;;;;;;;;;;4898289;29;20292;-55
2023/10/26 07:42:04;;;;;;;23.05;13.50;;;;;;;;;;4897902;29;20235;-57
2023/10/26 07:44:36;;;;;;;20.67;12.65;;;;;;;;;;4897978;29;20209;-55
2023/10/26 07:47:04;;;;;;;22.77;13.77;;;;;;;;;;4897653;29;20220;-57
2023/10/26 07:49:31;;;;;;;23.50;13.15;;;;;;;;;;4897656;29;20205;-58
2023/10/26 07:51:58;;;;;;;25.23;13.85;;;;;;;;;;4897817;29;20216;-56
2023/10/26 07:54:26;;;;;;;22.58;13.05;;;;;;;;;;4897670;29;20273;-55
2023/10/26 07:56:53;;;;;;;24.50;14.07;;;;;;;;;;4897433;29;20209;-56
2023/10/26 07:59:20;;;;;;;23.20;12.98;;;;;;;;;;4896947;29;20573;-55
2023/10/26 08:01:47;;;;;;;23.20;13.35;;;;;;;;;;4897415;29;20213;-56
2023/10/26 08:04:15;;;;;;;23.25;12.90;;;;;;;;;;4897634;29;20309;-56
2023/10/26 08:06:42;;;;;;;23.35;13.05;;;;;;;;;;4897635;29;20221;-57
2023/10/26 08:09:09;;;;;;;20.25;12.60;;;;;;;;;;4897373;29;20217;-54
2023/10/26 08:11:37;;;;;;;21.17;12.60;;;;;;;;;;4897322;29;20213;-55
2023/10/26 08:14:05;;;;;;;20.88;11.82;;;;;;;;;;4897092;29;20209;-57
2023/10/26 08:16:52;;;;;;;21.13;12.27;;;;;;;;;;4897408;29;20201;-56
2023/10/26 08:19:20;;;;;;;19.67;12.07;;;;;;;;;;4897299;29;20216;-56
2023/10/26 08:21:48;;;;;;;20.83;12.15;;;;;;;;;;4897109;29;20254;-55
2023/10/26 08:24:15;;;;;;;19.85;12.15;;;;;;;;;;4897128;29;20211;-56
2023/10/26 08:26:43;;;;;;;22.35;12.60;;;;;;;;;;4897045;29;20519;-56
2023/10/26 08:29:10;;;;;;;19.52;11.48;;;;;;;;;;4897087;29;20261;-56
2023/10/26 08:31:50;;;;;;;19.05;11.93;;;;;;;;;;4896940;29;20221;-56
2023/10/26 08:34:18;;;;;;;17.70;11.52;;;;;;;;;;4896980;29;20257;-54
2023/10/26 08:36:46;;;;;;;19.15;12.02;;;;;;;;;;4897634;29;20221;-56
2023/10/26 08:39:33;;;;;;;17.88;11.40;;;;;;;;;;4896902;29;20671;-57
2023/10/26 08:42:01;;;;;;;20.65;11.38;;;;;;;;;;4897125;29;20210;-57
2023/10/26 08:44:29;;;;;;;17.05;10.48;;;;;;;;;;4897295;29;20229;-57
2023/10/26 08:47:03;;;;;;;18.20;10.75;;;;;;;;;;4896711;29;20213;-58
2023/10/26 08:49:31;;;;;;;17.13;11.52;;;;;;;;;;4896767;29;20210;-57
2023/10/26 08:52:01;;;;;;;17.17;10.52;;;;;;;;;;4896584;29;20220;-57
2023/10/26 08:54:28;;;;;;;16.80;10.82;;;;;;;;;;4896638;29;20230;-56
2023/10/26 08:56:56;;;;;;;21.73;11.45;;;;;;;;;;4895597;29;20210;-56
2023/10/26 08:59:23;;;;;;;17.95;10.25;;;;;;;;;;4895265;29;20737;-56
2023/10/26 09:01:52;;;;;;;16.45;10.38;;;;;;;;;;4897269;29;20201;-56
2023/10/26 09:04:19;;;;;;;18.63;10.57;;;;;;;;;;4896555;29;20760;-57
2023/10/26 09:06:51;;;;;;;16.58;10.05;;;;;;;;;;4896776;29;20210;-57
2023/10/26 09:09:18;;;;;;;18.20;10.43;;;;;;;;;;4896735;29;20233;-57
2023/10/26 09:11:50;;;;;;;17.42;10.35;;;;;;;;;;4898056;29;20216;-56
2023/10/26 09:14:21;;;;;;;16.45;9.65;;;;;;;;;;4900481;29;20205;-57
2023/10/26 09:16:49;;;;;;;15.73;10.05;;;;;;;;;;4900341;29;20213;-57
2023/10/26 09:19:18;;;;;;;16.10;9.52;;;;;;;;;;4900484;29;20230;-58
2023/10/26 09:21:56;;;;;;;17.10;10.52;;;;;;;;;;4900683;29;20213;-54
2023/10/26 09:24:26;;;;;;;15.25;9.65;;;;;;;;;;4900408;29;20216;-57
2023/10/26 09:27:00;;;;;;;18.00;10.23;;;;;;;;;;4900292;29;20221;-56
2023/10/26 09:29:38;;;;;;;16.10;9.43;;;;;;;;;;4900169;29;20213;-55
2023/10/26 09:32:05;;;;;;;19.13;9.32;;;;;;;;;;4900351;29;20209;-57
2023/10/26 09:34:44;;;;;;;15.90;9.30;;;;;;;;;;4900051;29;20572;-56
2023/10/26 09:37:13;;;;;;;14.85;9.27;;;;;;;;;;4900071;29;20205;-57
2023/10/26 09:39:41;;;;;;;16.23;9.23;;;;;;;;;;4900539;29;20233;-56
2023/10/26 09:42:09;;;;;;;13.48;9.23;;;;;;;;;;4900151;29;20240;-56
2023/10/26 09:44:38;;;;;;;14.70;8.57;;;;;;;;;;4899856;29;20761;-55
2023/10/26 09:47:06;;;;;;;15.68;9.10;;;;;;;;;;4899887;29;20611;-56
2023/10/26 09:49:34;;;;;;;14.00;8.43;;;;;;;;;;4899850;29;20683;-55
2023/10/26 09:52:01;;;;;;;15.15;8.93;;;;;;;;;;4899692;29;20625;-56
2023/10/26 09:54:32;;;;;;;16.55;9.27;;;;;;;;;;4899931;29;20241;-57
2023/10/26 09:57:22;;;;;;;13.45;8.88;;;;;;;;;;4900079;29;20209;-56
2023/10/26 09:59:52;;;;;;;16.10;8.68;;;;;;;;;;4898625;29;20208;-56
2023/10/26 10:02:20;;;;;;;13.45;8.32;;;;;;;;;;4899812;29;20757;-54
2023/10/26 10:04:48;;;;;;;17.23;10.98;;;;;;;;;;4900011;29;20211;-56
2023/10/26 10:07:17;;;;;;;17.48;9.75;;;;;;;;;;4898612;29;20288;-56
2023/10/26 10:10:09;;;;;;;17.85;9.73;;;;;;;;;;4899622;29;20209;-56
2023/10/26 10:12:38;;;;;;;13.88;8.68;;;;;;;;;;4899492;29;20256;-55
2023/10/26 10:15:13;;;;;;;15.07;8.75;;;;;;;;;;4899486;29;20635;-57
2023/10/26 10:18:02;;;;;;;14.38;9.02;;;;;;;;;;4899562;29;20234;-56
2023/10/26 10:20:31;;;;;;;16.42;8.77;;;;;;;;;;4899403;29;20213;-56
2023/10/26 10:23:00;;;;;;;16.85;8.35;;;;;;;;;;4898980;29;20233;-56
2023/10/26 10:25:49;;;;;;;15.13;8.80;;;;;;;;;;4899315;29;20209;-56
2023/10/26 10:28:17;;;;;;;14.15;8.73;;;;;;;;;;4899215;29;20624;-55
2023/10/26 10:30:57;;;;;;;16.52;8.90;;;;;;;;;;4899425;29;20213;-56
2023/10/26 10:33:26;;;;;;;14.85;8.00;;;;;;;;;;4899190;29;20216;-55
2023/10/26 10:36:04;;;;;;;13.27;8.02;;;;;;;;;;4899460;29;20206;-57
2023/10/26 10:38:32;;;;;;;13.23;8.32;;;;;;;;;;4899270;29;20280;-57
2023/10/26 10:40:59;;;;;;;11.07;7.97;;;;;;;;;;4899524;29;20209;-57
2023/10/26 10:43:40;;;;;;;11.45;7.20;;;;;;;;;;4899188;29;20206;-56
2023/10/26 10:46:23;;;;;;;13.93;7.82;;;;;;;;;;4898916;29;20670;-56
2023/10/26 10:48:58;;;;;;;15.68;8.68;;;;;;;;;;4899044;29;20214;-57
2023/10/26 10:51:38;;;;;;;13.32;7.60;;;;;;;;;;4897888;29;20213;-58
2023/10/26 10:54:07;;;;;;;11.35;7.88;;;;;;;;;;4898463;29;20245;-57
2023/10/26 10:56:54;;;;;;;12.00;7.95;;;;;;;;;;4898667;29;20269;-57
2023/10/26 10:59:25;;;;;;;10.88;7.10;;;;;;;;;;4898867;29;20284;-56
2023/10/26 11:02:09;;;;;;;10.55;7.22;;;;;;;;;;4898920;29;20212;-57
2023/10/26 11:04:56;;;;;;;12.32;7.50;;;;;;;;;;4899080;29;20213;-57
2023/10/26 11:07:38;;;;;;;12.25;7.60;;;;;;;;;;4898543;29;20197;-56
2023/10/26 11:10:06;;;;;;;11.52;7.05;;;;;;;;;;4898439;29;20216;-57
2023/10/26 11:12:33;;;;;;;9.80;6.65;;;;;;;;;;4898529;29;20243;-57
2023/10/26 11:15:01;;;;;;;9.95;6.43;;;;;;;;;;4898258;29;20209;-56
2023/10/26 11:17:29;;;;;;;8.57;5.95;;;;;;;;;;4898869;29;20210;-56
2023/10/26 11:19:57;;;;;;;9.70;6.43;;;;;;;;;;4898400;29;20237;-57
2023/10/26 11:22:24;;;;;;;11.88;5.45;;;;;;;;;;4898402;29;20220;-57
2023/10/26 11:24:51;;;;;;;9.57;6.38;;;;;;;;;;4898556;29;20206;-57
2023/10/26 11:27:21;;;;;;;10.35;6.20;;;;;;;;;;4898225;29;20212;-57
2023/10/26 11:30:03;;;;;;;11.48;5.65;;;;;;;;;;4898065;29;20624;-56
2023/10/26 11:32:31;;;;;;;9.73;5.97;;;;;;;;;;4898480;29;20209;-57
2023/10/26 11:35:08;;;;;;;8.88;6.40;;;;;;;;;;4897164;29;20209;-56
2023/10/26 11:37:37;;;;;;;11.15;6.07;;;;;;;;;;4897994;29;20666;-57
2023/10/26 11:40:06;;;;;;;8.38;6.28;;;;;;;;;;4897892;29;20241;-57
2023/10/26 11:42:46;;;;;;;11.88;6.20;;;;;;;;;;4898095;29;20213;-57
2023/10/26 11:45:19;;;;;;;10.55;6.22;;;;;;;;;;4897902;29;20212;-55
2023/10/26 11:47:51;;;;;;;10.20;6.80;;;;;;;;;;4897741;29;20232;-55
2023/10/26 11:50:22;;;;;;;12.85;7.65;;;;;;;;;;4897840;29;20205;-57
2023/10/26 11:52:51;;;;;;;10.10;6.65;;;;;;;;;;4897485;29;20202;-58
2023/10/26 11:55:20;;;;;;;8.95;6.47;;;;;;;;;;4897218;29;20578;-56
2023/10/26 11:57:48;;;;;;;9.90;6.78;;;;;;;;;;4894881;29;20205;-56
2023/10/26 12:00:17;;;;;;;9.07;6.97;;;;;;;;;;4897224;29;20225;-57
2023/10/26 12:02:44;;;;;;;10.43;6.88;;;;;;;;;;4894610;29;20206;-57
2023/10/26 12:05:15;;;;;;;10.73;7.05;;;;;;;;;;4897244;29;20201;-56
2023/10/26 12:07:46;;;;;;;11.65;6.50;;;;;;;;;;4897420;29;20201;-57
2023/10/26 12:10:16;;;;;;;10.32;6.68;;;;;;;;;;4896926;29;20198;-58
2023/10/26 12:12:44;;;;;;;11.05;6.35;;;;;;;;;;4896981;29;20208;-57
2023/10/26 12:15:12;;;;;;;9.15;5.95;;;;;;;;;;4896862;29;20562;-57
2023/10/26 12:17:39;;;;;;;10.63;6.97;;;;;;;;;;4896626;29;20324;-58
2023/10/26 12:20:08;;;;;;;9.13;6.07;;;;;;;;;;4895831;29;20225;-57
2023/10/26 12:22:35;;;;;;;7.57;5.13;;;;;;;;;;4894382;29;20201;-57
2023/10/26 12:25:04;;;;;;;8.65;5.82;;;;;;;;;;4896690;29;20730;-57
2023/10/26 12:27:31;;;;;;;8.80;5.43;;;;;;;;;;4896830;29;20197;-57
2023/10/26 12:30:18;;;;;;;9.98;5.82;;;;;;;;;;4896426;29;20674;-57
2023/10/26 12:32:47;;;;;;;9.13;5.65;;;;;;;;;;4894482;29;20201;-57
2023/10/26 12:35:15;;;;;;;9.32;5.57;;;;;;;;;;4891178;29;20369;-58
2023/10/26 12:37:42;;;;;;;7.57;5.00;;;;;;;;;;4895737;29;20605;-58
2023/10/26 12:40:10;;;;;;;6.60;4.88;;;;;;;;;;4896981;29;20239;-57
2023/10/26 12:42:37;;;;;;;8.23;4.93;;;;;;;;;;4898131;29;20229;-57
2023/10/26 12:45:05;;;;;;;6.40;4.60;;;;;;;;;;4897418;29;20714;-57
2023/10/26 12:47:32;;;;;;;5.15;4.40;;;;;;;;;;4895669;29;20221;-58
2023/10/26 12:49:59;;;;;;;7.22;4.80;;;;;;;;;;4892311;29;20237;-58
2023/10/26 12:52:26;;;;;;;6.95;4.80;;;;;;;;;;4895806;29;20609;-58
2023/10/26 12:54:53;;;;;;;7.22;5.03;;;;;;;;;;4895455;29;20232;-57
2023/10/26 12:57:20;;;;;;;7.88;5.00;;;;;;;;;;4895377;29;20224;-58
2023/10/26 12:59:48;;;;;;;8.07;4.47;;;;;;;;;;4895262;29;20811;-58
2023/10/26 13:02:15;;;;;;;5.85;4.00;;;;;;;;;;4895369;29;20314;-58
2023/10/26 13:04:43;;;;;;;6.78;3.45;;;;;;;;;;4895359;29;20217;-56
2023/10/26 13:07:10;;;;;;;6.93;3.67;;;;;;;;;;4895406;29;20226;-52
2023/10/26 13:09:41;;;;;;;4.25;3.38;;;;;;;;;;4895879;29;20582;-57
2023/10/26 13:12:08;;;;;;;4.68;2.78;;;;;;;;;;4895477;29;20763;-59
2023/10/26 13:14:36;;;;;;;3.95;2.55;;;;;;;;;;4895382;29;20225;-58
2023/10/26 13:17:04;;;;;;;3.65;2.38;;;;;;;;;;4891154;29;20233;-58
2023/10/26 13:19:32;;;;;;;3.92;2.25;;;;;;;;;;4894068;29;20237;-58
2023/10/26 13:21:59;;;;;;;2.67;2.10;;;;;;;;;;4892760;29;20229;-58
2023/10/26 13:24:27;;;;;;;3.35;2.05;;;;;;;;;;4893941;29;20308;-58
2023/10/26 13:26:55;;;;;;;3.85;2.20;;;;;;;;;;4893446;29;20730;-58
2023/10/26 13:29:23;;;;;;;3.15;1.83;;;;;;;;;;4895086;29;20241;-57
2023/10/26 13:31:50;;;;;;;3.22;2.22;;;;;;;;;;4895065;29;20316;-58
2023/10/26 13:34:17;;;;;;;3.83;2.00;;;;;;;;;;4893985;29;20553;-57
2023/10/26 13:36:44;;;;;;;2.47;1.85;;;;;;;;;;4895259;29;20233;-57
2023/10/26 13:39:11;;;;;;;3.20;1.67;;;;;;;;;;4895386;29;20730;-57
2023/10/26 13:41:38;;;;;;;5.22;1.60;;;;;;;;;;4895413;29;20683;-58
2023/10/26 13:44:06;;;;;;;3.58;1.85;;;;;;;;;;4895531;29;20702;-57
2023/10/26 13:46:34;;;;;;;2.45;1.88;;;;;;;;;;4896086;29;20234;-56
2023/10/26 13:49:02;;;;;;;4.32;2.20;;;;;;;;;;4895180;29;20237;-57
2023/10/26 13:51:29;;;;;;;2.42;2.10;;;;;;;;;;4894971;29;20725;-57
2023/10/26 13:53:57;;;;;;;3.83;2.08;;;;;;;;;;4895083;29;20324;-57
2023/10/26 13:56:24;;;;;;;4.00;2.00;;;;;;;;;;4895436;29;20733;-57
2023/10/26 13:58:51;;;;;;;2.60;1.90;;;;;;;;;;4898284;29;20241;-57
2023/10/26 14:01:18;;;;;;;4.13;2.03;;;;;;;;;;4899239;29;20236;-59
2023/10/26 14:03:46;;;;;;;2.47;1.60;;;;;;;;;;4898146;29;20233;-57
2023/10/26 14:06:13;;;;;;;3.83;1.65;;;;;;;;;;4898927;29;20226;-56
2023/10/26 14:08:41;;;;;;;3.00;1.50;;;;;;;;;;4898722;29;20229;-57
2023/10/26 14:11:08;;;;;;;2.47;1.65;;;;;;;;;;4898784;29;20289;-57
2023/10/26 14:13:35;;;;;;;3.40;1.77;;;;;;;;;;4898337;29;20233;-57
2023/10/26 14:16:02;;;;;;;2.13;1.38;;;;;;;;;;4898375;29;20293;-59
2023/10/26 14:18:30;;;;;;;1.88;1.52;;;;;;;;;;4898501;29;20218;-58
2023/10/26 14:20:57;;;;;;;1.92;1.30;;;;;;;;;;4897819;29;20237;-58
2023/10/26 14:23:25;;;;;;;1.73;1.08;;;;;;;;;;4898420;29;20230;-57
2023/10/26 14:25:52;;;;;;;2.97;1.35;;;;;;;;;;4898273;29;20554;-57
2023/10/26 14:28:19;;;;;;;3.58;1.50;;;;;;;;;;4897796;29;20236;-57
2023/10/26 14:30:46;;;;;;;3.22;1.20;;;;;;;;;;4898658;29;20225;-57
2023/10/26 14:33:14;;;;;;;2.13;1.20;;;;;;;;;;4898385;29;20240;-57
2023/10/26 14:35:41;;;;;;;2.03;1.30;;;;;;;;;;4898252;29;20226;-56
2023/10/26 14:38:09;;;;;;;3.15;1.40;;;;;;;;;;4899103;29;20240;-56